Dades meteomassalio
Diari Summary for Agost 29, 2017 Units:  Metric    English   Both
« Previous Day
Next Day »
Diari Semanal Mensual Anual Personalitzat
  Maxima: Minima: Mijana:
Temperatura: 26.2 °C 16.9 °C 20.7 °C
Rosada: 18.7 °C 11.5 °C 16 °C
Humitat: 92 % 45 % 76 %
Velocitat del vent: 51.8 km/h 0.0 km/h 8.8 km/h
Racha vent: 51.8 km/h - -
Vent:- - South
Pressio: 1017.8 hPa 1014.8 hPa -
Pluja: 1.3 mm    
Historical Graphs
 
 
Tabular Data for Agost 29, 2017
Time Temperature Dew Point Pressure Wind Wind Speed Wind Gust Humidity Rainfall Rate (Hourly) solar Conditions
00:00 21.1 °C 18.5 °C 1017.2 hPa WSW 24.1 km/h 24.1 km/h 85 % 0.0 mm 0.0 W/m2 CLR
00:05 21.0 °C 18.4 °C 1017.2 hPa SSW 24.1 km/h 24.1 km/h 85 % 0.0 mm 0.0 W/m2 CLR
00:10 20.9 °C 18.3 °C 1017.2 hPa SW 20.9 km/h 20.9 km/h 85 % 0.0 mm 0.0 W/m2 CLR
00:15 20.8 °C 18.2 °C 1017.2 hPa SW 9.3 km/h 9.3 km/h 85 % 0.0 mm 0.0 W/m2 CLR
00:20 20.8 °C 18.2 °C 1017.2 hPa SSE 6.4 km/h 6.4 km/h 85 % 0.0 mm 0.0 W/m2 CLR
00:25 20.8 °C 18.2 °C 1017.2 hPa Calm     85 % 0.0 mm 0.0 W/m2 CLR
00:30 20.7 °C 18.1 °C 1017.2 hPa SSW 14.5 km/h 14.5 km/h 85 % 0.0 mm 0.0 W/m2 CLR
00:35 20.7 °C 17.9 °C 1017.5 hPa SSW 24.1 km/h 24.1 km/h 84 % 0.0 mm 0.0 W/m2 CLR
00:40 20.7 °C 18.1 °C 1017.2 hPa SW 24.1 km/h 24.1 km/h 85 % 0.0 mm 0.0 W/m2 CLR
00:45 20.7 °C 18.1 °C 1017.2 hPa SW 20.4 km/h 20.4 km/h 85 % 0.0 mm 0.0 W/m2 CLR
00:50 20.6 °C 17.8 °C 1017.5 hPa South 11.1 km/h 11.1 km/h 84 % 0.0 mm 0.0 W/m2 CLR
00:55 20.5 °C 17.7 °C 1017.2 hPa SW 7.4 km/h 7.4 km/h 84 % 0.0 mm 0.0 W/m2 CLR
01:00 20.5 °C 17.7 °C 1017.5 hPa SSW 5.6 km/h   84 % 0.0 mm 0.0 W/m2 CLR
01:05 20.4 °C 17.7 °C 1017.2 hPa Calm     84 % 0.0 mm 0.0 W/m2 CLR
01:10 20.4 °C 17.6 °C 1017.2 hPa Calm     84 % 0.0 mm 0.0 W/m2 CLR
01:15 20.3 °C 17.7 °C 1017.5 hPa Calm     85 % 0.0 mm 0.0 W/m2 CLR
01:20 20.2 °C 17.6 °C 1017.5 hPa SSW 5.6 km/h 5.6 km/h 85 % 0.0 mm 0.0 W/m2 CLR
01:25 20.2 °C 17.6 °C 1017.5 hPa South 5.6 km/h 5.6 km/h 85 % 0.0 mm 0.0 W/m2 CLR
01:30 20.2 °C 17.6 °C 1017.5 hPa Calm     85 % 0.0 mm 0.0 W/m2 CLR
01:35 20.1 °C 17.5 °C 1017.2 hPa South 5.6 km/h 5.6 km/h 85 % 0.0 mm 0.0 W/m2 CLR
01:40 20.1 °C 17.4 °C 1017.2 hPa Calm     85 % 0.0 mm 0.0 W/m2 CLR
01:45 20.0 °C 17.4 °C 1016.8 hPa Calm     85 % 0.0 mm 0.0 W/m2 CLR
01:50 19.9 °C 17.3 °C 1017.2 hPa Calm     85 % 0.0 mm 0.0 W/m2 CLR
01:55 19.9 °C 17.3 °C 1016.8 hPa Calm     85 % 0.0 mm 0.0 W/m2 CLR
02:00 19.8 °C 17.2 °C 1016.8 hPa Calm     85 % 0.0 mm 0.0 W/m2 CLR
02:05 19.7 °C 17.1 °C 1017.2 hPa Calm     85 % 0.0 mm 0.0 W/m2 CLR
02:10 19.7 °C 17.3 °C 1017.2 hPa Calm     86 % 0.0 mm 0.0 W/m2 CLR
02:15 19.6 °C 17.2 °C 1017.2 hPa Calm     86 % 0.0 mm 0.0 W/m2 CLR
02:20 19.6 °C 17.2 °C 1017.2 hPa SSE 5.6 km/h 5.6 km/h 86 % 0.0 mm 0.0 W/m2 CLR
02:25 19.4 °C 17.1 °C 1017.2 hPa SSE 5.6 km/h 5.6 km/h 86 % 0.0 mm 0.0 W/m2 CLR
02:30 19.4 °C 17.0 °C 1017.2 hPa SSE 3.2 km/h 3.2 km/h 86 % 0.0 mm 0.0 W/m2 CLR
02:35 19.3 °C 16.9 °C 1017.2 hPa South 1.6 km/h 1.6 km/h 86 % 0.0 mm 0.0 W/m2 CLR
02:40 19.3 °C 17.1 °C 1017.2 hPa Calm     87 % 0.0 mm 0.0 W/m2 CLR
02:45 19.2 °C 17.0 °C 1017.2 hPa SSE 5.6 km/h 5.6 km/h 87 % 0.0 mm 0.0 W/m2 CLR
02:50 19.2 °C 16.9 °C 1017.2 hPa SSE 1.9 km/h 1.9 km/h 87 % 0.0 mm 0.0 W/m2 CLR
02:55 19.2 °C 16.8 °C 1017.2 hPa SSE 1.9 km/h   86 % 0.0 mm 0.0 W/m2 CLR
03:00 19.1 °C 16.7 °C 1016.8 hPa Calm     86 % 0.0 mm 0.0 W/m2 CLR
03:05 19.1 °C 16.7 °C 1017.2 hPa Calm     86 % 0.0 mm 0.0 W/m2 CLR
03:10 19.1 °C 16.7 °C 1016.8 hPa South 4.8 km/h 4.8 km/h 86 % 0.0 mm 0.0 W/m2 CLR
03:15 19.0 °C 16.6 °C 1016.8 hPa South 5.6 km/h 5.6 km/h 86 % 0.0 mm 0.0 W/m2 CLR
03:20 19.0 °C 16.4 °C 1016.8 hPa South 3.7 km/h   85 % 0.0 mm 0.0 W/m2 CLR
03:25 19.0 °C 16.4 °C 1016.8 hPa Calm     85 % 0.0 mm 0.0 W/m2 CLR
03:30 19.0 °C 16.4 °C 1016.8 hPa South 5.6 km/h   85 % 0.0 mm 0.0 W/m2 CLR
03:35 19.0 °C 16.4 °C 1016.8 hPa Calm     85 % 0.0 mm 0.0 W/m2 CLR
03:40 18.9 °C 16.3 °C 1016.8 hPa Calm     85 % 0.0 mm 0.0 W/m2 CLR
03:45 18.8 °C 16.3 °C 1016.8 hPa Calm     85 % 0.0 mm 0.0 W/m2 CLR
03:50 18.7 °C 16.3 °C 1016.8 hPa Calm     86 % 0.0 mm 0.0 W/m2 CLR
03:55 18.7 °C 16.3 °C 1016.5 hPa Calm     86 % 0.0 mm 0.0 W/m2 CLR
04:00 18.6 °C 16.2 °C 1016.8 hPa Calm     86 % 0.0 mm 0.0 W/m2 CLR
04:05 18.6 °C 16.2 °C 1016.5 hPa Calm     86 % 0.0 mm 0.0 W/m2 CLR
04:10 18.5 °C 16.1 °C 1016.5 hPa Calm     86 % 0.0 mm 0.0 W/m2 CLR
04:15 18.5 °C 16.3 °C 1016.5 hPa Calm     87 % 0.0 mm 0.0 W/m2 CLR
04:20 18.4 °C 16.2 °C 1016.5 hPa Calm     87 % 0.0 mm 0.0 W/m2 CLR
04:25 18.3 °C 16.1 °C 1016.1 hPa Calm     87 % 0.0 mm 0.0 W/m2 CLR
04:30 18.2 °C 16.0 °C 1016.5 hPa Calm     87 % 0.0 mm 0.0 W/m2 CLR
04:35 18.1 °C 16.1 °C 1016.1 hPa Calm     88 % 0.0 mm 0.0 W/m2 CLR
04:40 18.0 °C 16.0 °C 1016.1 hPa Calm     88 % 0.0 mm 0.0 W/m2 CLR
04:45 17.9 °C 15.9 °C 1015.8 hPa Calm     88 % 0.0 mm 0.0 W/m2 CLR
04:50 17.9 °C 15.9 °C 1015.8 hPa Calm     88 % 0.0 mm 0.0 W/m2 CLR
04:55 17.8 °C 15.9 °C 1016.1 hPa Calm     89 % 0.0 mm 0.0 W/m2 CLR
05:00 17.7 °C 15.9 °C 1016.1 hPa Calm     89 % 0.0 mm 0.0 W/m2 CLR
05:05 17.6 °C 15.8 °C 1015.8 hPa Calm     89 % 0.0 mm 0.0 W/m2 CLR
05:11 17.6 °C 15.7 °C 1015.8 hPa Calm     89 % 0.0 mm 0.0 W/m2 CLR
05:16 17.6 °C 15.7 °C 1016.1 hPa Calm     89 % 0.0 mm 0.0 W/m2 CLR
05:21 17.5 °C 15.7 °C 1016.1 hPa Calm     89 % 0.0 mm 0.0 W/m2 CLR
05:22 17.5 °C 15.7 °C 1016.1 hPa Calm     89 % 0.0 mm 0.0 W/m2 CLR
05:25 17.4 °C 15.6 °C 1016.1 hPa Calm     89 % 0.0 mm 0.0 W/m2 CLR
05:26 17.4 °C 15.6 °C 1016.1 hPa Calm     89 % 0.0 mm 0.0 W/m2 CLR
05:30 17.4 °C 15.6 °C 1015.8 hPa Calm     89 % 0.0 mm 0.0 W/m2 CLR
05:33 17.4 °C 15.7 °C 1015.8 hPa Calm     90 % 0.0 mm 0.0 W/m2 CLR
05:35 17.4 °C 15.7 °C 1015.8 hPa Calm     90 % 0.0 mm 0.0 W/m2 CLR
05:40 17.3 °C 15.5 °C 1015.8 hPa Calm     89 % 0.0 mm 0.0 W/m2 CLR
05:45 17.3 °C 15.6 °C 1015.8 hPa Calm     90 % 0.0 mm 0.0 W/m2 CLR
05:50 17.2 °C 15.6 °C 1015.8 hPa Calm     90 % 0.0 mm 0.0 W/m2 CLR
05:55 17.2 °C 15.5 °C 1015.8 hPa Calm     90 % 0.0 mm 0.0 W/m2 CLR
06:00 17.1 °C 15.4 °C 1015.8 hPa Calm     90 % 0.0 mm 0.0 W/m2 CLR
06:05 17.1 °C 15.4 °C 1015.8 hPa Calm     90 % 0.0 mm 0.0 W/m2 CLR
06:10 17.1 °C 15.4 °C 1016.1 hPa SSE 5.6 km/h 5.6 km/h 90 % 0.0 mm 0.0 W/m2 CLR
06:15 16.9 °C 15.3 °C 1016.5 hPa SSE 18.5 km/h 18.5 km/h 90 % 0.0 mm 0.0 W/m2 CLR
06:20 16.9 °C 15.4 °C 1016.5 hPa South 3.7 km/h 3.7 km/h 91 % 0.0 mm 0.0 W/m2 CLR
06:25 17.0 °C 15.5 °C 1016.5 hPa SSW 6.4 km/h 6.4 km/h 91 % 0.0 mm 0.0 W/m2 CLR
06:30 17.3 °C 15.8 °C 1016.5 hPa SSW 1.9 km/h 1.9 km/h 91 % 0.5 mm 0.0 W/m2 RA
06:35 17.5 °C 15.8 °C 1015.8 hPa NW 8.0 km/h 8.0 km/h 90 % 0.8 mm 0.0 W/m2 RA
06:40 17.4 °C 15.8 °C 1016.1 hPa Calm     90 % 0.8 mm 0.0 W/m2
06:45 17.3 °C 15.7 °C 1016.1 hPa Calm     90 % 0.8 mm 0.0 W/m2 CLR
06:50 17.3 °C 15.8 °C 1016.1 hPa Calm     91 % 0.8 mm 0.0 W/m2 CLR
06:55 17.2 °C 15.7 °C 1016.1 hPa Calm     91 % 0.8 mm 0.0 W/m2 CLR
07:00 17.2 °C 15.7 °C 1016.1 hPa Calm     91 % 0.8 mm 0.0 W/m2 CLR
07:05 17.1 °C 15.6 °C 1016.1 hPa Calm     91 % 0.8 mm 0.0 W/m2 CLR
07:10 17.1 °C 15.6 °C 1016.1 hPa Calm     91 % 0.8 mm 0.0 W/m2 CLR
07:15 17.1 °C 15.8 °C 1016.5 hPa Calm     92 % 0.8 mm 0.0 W/m2 OVC
07:20 17.2 °C 15.8 °C 1016.5 hPa Calm     92 % 0.8 mm 0.0 W/m2 OVC
07:25 17.1 °C 15.8 °C 1016.8 hPa Calm     92 % 0.8 mm 7.0 W/m2 BKN
07:30 17.1 °C 15.8 °C 1017.2 hPa South 1.9 km/h 1.9 km/h 92 % 0.3 mm 7.0 W/m2 BKN
07:35 17.1 °C 15.8 °C 1017.2 hPa South 1.9 km/h   92 % 0.0 mm 14.0 W/m2 BKN
07:40 17.2 °C 15.8 °C 1016.8 hPa Calm     92 % 0.0 mm 30.0 W/m2 BKN
07:45 17.2 °C 15.9 °C 1016.5 hPa Calm     92 % 0.0 mm 35.0 W/m2 BKN
07:50 17.3 °C 16.0 °C 1016.5 hPa Calm     92 % 0.0 mm 35.0 W/m2 BKN
07:55 17.3 °C 16.0 °C 1016.5 hPa Calm     92 % 0.0 mm 42.0 W/m2 BKN
08:00 17.4 °C 16.1 °C 1016.5 hPa Calm     92 % 0.0 mm 53.0 W/m2 SCT
08:05 17.4 °C 16.1 °C 1016.5 hPa Calm     92 % 0.0 mm 74.0 W/m2 FEW
08:10 17.5 °C 16.2 °C 1016.5 hPa Calm     92 % 0.0 mm 88.0 W/m2 CLR
08:11 17.5 °C 16.2 °C 1016.8 hPa Calm     92 % 0.0 mm 90.0 W/m2 CLR
08:16 17.7 °C 16.3 °C 1016.8 hPa Calm     92 % 0.0 mm 91.0 W/m2 CLR
08:21 17.7 °C 16.4 °C 1016.8 hPa Calm     92 % 0.0 mm 54.0 W/m2 SCT
08:26 17.8 °C 16.4 °C 1016.8 hPa Calm     92 % 0.0 mm 53.0 W/m2 SCT
08:31 17.9 °C 16.6 °C 1016.5 hPa Calm     92 % 0.0 mm 47.0 W/m2 SCT
08:36 17.9 °C 16.6 °C 1016.5 hPa Calm     92 % 0.0 mm 58.0 W/m2 SCT
08:41 17.9 °C 16.4 °C 1016.5 hPa Calm     91 % 0.0 mm 67.0 W/m2 SCT
08:46 17.8 °C 16.3 °C 1016.5 hPa Calm     91 % 0.0 mm 46.0 W/m2 SCT
08:51 17.9 °C 16.4 °C 1016.5 hPa Calm     91 % 0.0 mm 40.0 W/m2 SCT
08:56 17.9 °C 16.4 °C 1016.8 hPa Calm     91 % 0.0 mm 63.0 W/m2 BKN
09:01 17.9 °C 16.4 °C 1016.5 hPa Calm     91 % 0.0 mm 107.0 W/m2 SCT
09:06 18.1 °C 16.6 °C 1016.8 hPa Calm     91 % 0.0 mm 120.0 W/m2 CLR
09:16 18.3 °C 16.8 °C 1016.8 hPa Calm     91 % 0.0 mm 151.0 W/m2 CLR
09:21 18.3 °C 16.8 °C 1017.2 hPa Calm     91 % 0.0 mm 165.0 W/m2 CLR
09:26 18.5 °C 17.0 °C 1016.8 hPa Calm     91 % 0.0 mm 181.0 W/m2 CLR
09:31 18.7 °C 17.2 °C 1017.2 hPa Calm     91 % 0.0 mm 243.0 W/m2 CLR
09:36 18.9 °C 17.2 °C 1017.2 hPa Calm     90 % 0.0 mm 424.0 W/m2 CLR
09:41 19.2 °C 17.3 °C 1017.2 hPa Calm     89 % 0.0 mm 397.0 W/m2 CLR
09:46 19.4 °C 17.4 °C 1017.5 hPa Calm     88 % 0.0 mm 380.0 W/m2 CLR
09:51 19.6 °C 17.2 °C 1017.2 hPa Calm     86 % 0.0 mm 387.0 W/m2 CLR
09:56 19.8 °C 17.2 °C 1017.2 hPa Calm     85 % 0.0 mm 403.0 W/m2 CLR
10:01 20.2 °C 17.6 °C 1017.5 hPa Calm     85 % 0.0 mm 415.0 W/m2 CLR
10:06 20.4 °C 17.7 °C 1017.2 hPa Calm     84 % 0.0 mm 432.0 W/m2 CLR
10:11 20.7 °C 17.9 °C 1017.2 hPa Calm     84 % 0.0 mm 448.0 W/m2 CLR
10:16 20.9 °C 17.8 °C 1017.2 hPa Calm     82 % 0.0 mm 455.0 W/m2 CLR
10:21 21.0 °C 17.6 °C 1017.2 hPa NNE 4.8 km/h 4.8 km/h 81 % 0.0 mm 482.0 W/m2 CLR
10:26 21.0 °C 17.6 °C 1017.2 hPa North 3.2 km/h 3.2 km/h 81 % 0.0 mm 508.0 W/m2 CLR
10:31 21.2 °C 17.6 °C 1017.2 hPa NNW 5.6 km/h 5.6 km/h 80 % 0.0 mm 526.0 W/m2 CLR
10:36 21.4 °C 18.0 °C 1017.2 hPa NNW 7.4 km/h 7.4 km/h 81 % 0.0 mm 540.0 W/m2 CLR
10:41 21.5 °C 17.7 °C 1017.2 hPa North 5.6 km/h   79 % 0.0 mm 541.0 W/m2 CLR
10:46 21.7 °C 18.1 °C 1017.2 hPa NNW 5.6 km/h 5.6 km/h 80 % 0.0 mm 591.0 W/m2 CLR
10:51 21.7 °C 17.9 °C 1017.5 hPa Calm     79 % 0.0 mm 485.0 W/m2 CLR
10:56 21.8 °C 17.8 °C 1017.5 hPa NNE 3.7 km/h 3.7 km/h 78 % 0.0 mm 661.0 W/m2 CLR
11:01 22.0 °C 18.0 °C 1017.5 hPa Calm     78 % 0.0 mm 526.0 W/m2 CLR
11:06 22.3 °C 18.3 °C 1017.5 hPa Calm     78 % 0.0 mm 584.0 W/m2 CLR
11:11 22.4 °C 18.0 °C 1017.5 hPa NW 3.7 km/h   76 % 0.0 mm 399.0 W/m2 CLR
11:16 22.4 °C 17.7 °C 1017.5 hPa Calm     75 % 0.0 mm 223.0 W/m2 CLR
11:21 22.3 °C 17.8 °C 1017.5 hPa Calm     76 % 0.0 mm 315.0 W/m2 CLR
11:26 22.3 °C 17.6 °C 1017.5 hPa Calm     75 % 0.0 mm 292.0 W/m2 CLR
11:31 22.3 °C 17.6 °C 1017.2 hPa Calm     75 % 0.0 mm 281.0 W/m2 CLR
11:36 22.3 °C 18.1 °C 1017.2 hPa NW 1.9 km/h 1.9 km/h 77 % 0.0 mm 234.0 W/m2 CLR
11:41 22.3 °C 18.1 °C 1016.8 hPa Calm     77 % 0.0 mm 220.0 W/m2 CLR
11:46 22.2 °C 18.0 °C 1017.2 hPa NW 5.6 km/h 5.6 km/h 77 % 0.0 mm 220.0 W/m2 CLR
11:52 22.2 °C 18.0 °C 1017.2 hPa North 7.4 km/h 7.4 km/h 77 % 0.0 mm 232.0 W/m2 CLR
11:56 22.1 °C 17.8 °C 1017.2 hPa NNW 5.6 km/h 5.6 km/h 77 % 0.0 mm 258.0 W/m2 CLR
12:02 22.1 °C 17.8 °C 1017.2 hPa Calm     77 % 0.0 mm 318.0 W/m2 CLR
12:07 22.2 °C 17.9 °C 1017.2 hPa Calm     77 % 0.0 mm 329.0 W/m2 CLR
12:12 22.3 °C 18.1 °C 1017.2 hPa Calm     77 % 0.0 mm 434.0 W/m2 CLR
12:17 22.4 °C 18.0 °C 1017.5 hPa North 6.4 km/h 6.4 km/h 76 % 0.0 mm 396.0 W/m2 CLR
12:22 22.5 °C 18.1 °C 1017.5 hPa Calm     76 % 0.0 mm 659.0 W/m2 CLR
12:27 22.8 °C 18.2 °C 1017.2 hPa NNW 5.6 km/h 5.6 km/h 75 % 0.0 mm 744.0 W/m2 CLR
12:32 23.1 °C 18.0 °C 1017.2 hPa Calm     73 % 0.0 mm 768.0 W/m2 CLR
12:37 23.4 °C 18.1 °C 1017.2 hPa NW 3.2 km/h 3.4 km/h 72 % 0.0 mm 403.0 W/m2 CLR
12:42 23.6 °C 18.2 °C 1016.8 hPa Calm     72 % 0.0 mm 487.0 W/m2 CLR
12:47 23.7 °C 17.9 °C 1016.8 hPa Calm     70 % 0.0 mm 490.0 W/m2 CLR
12:52 23.8 °C 17.7 °C 1016.8 hPa WNW 5.6 km/h 5.6 km/h 69 % 0.0 mm 526.0 W/m2 CLR
12:57 23.7 °C 17.9 °C 1016.5 hPa West 5.6 km/h 5.6 km/h 70 % 0.0 mm 513.0 W/m2 CLR
13:02 23.7 °C 17.9 °C 1016.5 hPa West 1.9 km/h 1.9 km/h 70 % 0.0 mm 445.0 W/m2 CLR
13:07 23.8 °C 18.1 °C 1016.5 hPa North 5.6 km/h 5.6 km/h 70 % 0.0 mm 457.0 W/m2 CLR
13:12 24.0 °C 18.2 °C 1016.1 hPa WNW 5.6 km/h 5.6 km/h 70 % 0.0 mm 348.0 W/m2 CLR
13:17 23.9 °C 18.1 °C 1016.1 hPa Calm     70 % 0.0 mm 311.0 W/m2 CLR
13:22 23.9 °C 18.1 °C 1016.1 hPa WNW 6.4 km/h 6.4 km/h 70 % 0.0 mm 297.0 W/m2 CLR
13:27 23.9 °C 18.4 °C 1016.1 hPa NW 14.8 km/h 14.8 km/h 71 % 0.0 mm 262.0 W/m2 CLR
13:32 23.9 °C 18.4 °C 1016.1 hPa NW 9.3 km/h 9.3 km/h 71 % 0.0 mm 195.0 W/m2 CLR
13:37 23.9 °C 18.3 °C 1015.8 hPa West 5.6 km/h 5.6 km/h 71 % 0.0 mm 156.0 W/m2 CLR
13:42 23.8 °C 18.3 °C 1016.1 hPa Calm     71 % 0.0 mm 153.0 W/m2 CLR
13:47 23.8 °C 18.1 °C 1016.1 hPa Calm     70 % 0.0 mm 113.0 W/m2 CLR
13:52 23.8 °C 18.3 °C 1016.1 hPa Calm     71 % 0.0 mm 79.0 W/m2 CLR
13:57 23.7 °C 18.2 °C 1015.8 hPa NW 9.7 km/h 9.7 km/h 71 % 0.0 mm 60.0 W/m2 FEW
14:02 23.7 °C 18.3 °C 1015.8 hPa NNW 6.4 km/h 6.4 km/h 72 % 0.0 mm 56.0 W/m2 SCT
14:07 23.6 °C 18.2 °C 1016.5 hPa NNW 5.6 km/h 5.6 km/h 72 % 0.0 mm 54.0 W/m2 SCT
14:12 23.6 °C 18.4 °C 1016.5 hPa NNW 5.6 km/h 5.6 km/h 73 % 0.0 mm 51.0 W/m2 SCT
14:17 23.5 °C 18.4 °C 1016.5 hPa Calm     73 % 0.0 mm 53.0 W/m2 SCT
14:54 23.9 °C 18.1 °C 1016.1 hPa Calm     70 % 0.0 mm 153.0 W/m2 CLR
14:59 24.0 °C 18.4 °C 1016.1 hPa Calm     71 % 0.0 mm 171.0 W/m2 CLR
15:04 24.1 °C 18.5 °C 1016.1 hPa Calm     71 % 0.0 mm 288.0 W/m2 CLR
15:09 24.3 °C 18.4 °C 1016.1 hPa Calm     70 % 0.0 mm 294.0 W/m2 CLR
15:14 24.4 °C 18.6 °C 1015.8 hPa Calm     70 % 0.0 mm 294.0 W/m2 CLR
15:19 24.6 °C 18.7 °C 1015.5 hPa North 1.9 km/h   70 % 0.0 mm 253.0 W/m2 CLR
15:24 24.7 °C 18.7 °C 1015.5 hPa Calm     69 % 0.0 mm 206.0 W/m2 CLR
15:29 24.8 °C 18.5 °C 1015.5 hPa Calm     68 % 0.0 mm 195.0 W/m2 CLR
15:34 24.9 °C 18.6 °C 1015.5 hPa NNE 1.9 km/h   68 % 0.0 mm 207.0 W/m2 CLR
15:39 25.0 °C 18.4 °C 1015.5 hPa NE 5.6 km/h 5.6 km/h 67 % 0.0 mm 206.0 W/m2 CLR
15:44 25.2 °C 18.4 °C 1015.8 hPa NE 1.9 km/h   66 % 0.0 mm 171.0 W/m2 CLR
15:49 25.3 °C 18.2 °C 1015.8 hPa Calm     65 % 0.0 mm 121.0 W/m2 CLR
15:54 25.3 °C 18.5 °C 1015.5 hPa Calm     66 % 0.0 mm 90.0 W/m2 CLR
15:57 25.4 °C 18.3 °C 1015.5 hPa Calm     65 % 0.0 mm 83.0 W/m2 CLR
16:02 25.4 °C 18.4 °C 1015.5 hPa North 7.4 km/h 7.4 km/h 65 % 0.0 mm 77.0 W/m2 FEW
16:07 25.7 °C 18.3 °C 1015.5 hPa Calm     64 % 0.0 mm 84.0 W/m2 FEW
16:12 25.9 °C 17.8 °C 1015.5 hPa ESE 22.2 km/h 22.2 km/h 61 % 0.0 mm 90.0 W/m2 FEW
16:17 26.2 °C 16.7 °C 1015.1 hPa ESE 42.6 km/h 42.6 km/h 56 % 0.0 mm 83.0 W/m2 CLR
16:22 26.2 °C 16.2 °C 1014.8 hPa East 27.4 km/h 27.4 km/h 54 % 0.0 mm 69.0 W/m2 FEW
16:23 26.2 °C 15.6 °C 1014.8 hPa SE 29.6 km/h 29.6 km/h 52 % 0.0 mm 65.0 W/m2 FEW
16:28 26.1 °C 15.2 °C 1015.1 hPa SE 37.0 km/h 37.0 km/h 51 % 0.0 mm 54.0 W/m2 FEW
16:33 25.8 °C 15.5 °C 1015.8 hPa SE 33.3 km/h 33.3 km/h 53 % 0.0 mm 63.0 W/m2 SCT
16:38 25.3 °C 15.7 °C 1015.8 hPa SSE 25.9 km/h 25.9 km/h 55 % 0.0 mm 70.0 W/m2 SCT
16:43 25.2 °C 15.2 °C 1015.8 hPa SSE 25.9 km/h 25.9 km/h 54 % 0.0 mm 58.0 W/m2 FEW
16:48 25.2 °C 14.9 °C 1015.8 hPa ESE 24.1 km/h 24.1 km/h 53 % 0.0 mm 63.0 W/m2 SCT
16:53 25.3 °C 15.0 °C 1016.1 hPa SE 29.6 km/h 29.6 km/h 53 % 0.0 mm 81.0 W/m2 FEW
16:58 25.3 °C 14.7 °C 1016.1 hPa SE 27.8 km/h 27.8 km/h 52 % 0.0 mm 104.0 W/m2 FEW
17:03 25.2 °C 14.4 °C 1016.1 hPa SE 31.5 km/h 31.5 km/h 51 % 0.0 mm 95.0 W/m2 CLR
17:08 25.2 °C 14.3 °C 1016.1 hPa SE 27.8 km/h 27.8 km/h 51 % 0.0 mm 70.0 W/m2 CLR
17:13 25.1 °C 14.6 °C 1016.1 hPa ESE 24.1 km/h 24.1 km/h 52 % 0.0 mm 63.0 W/m2 FEW
17:18 24.9 °C 14.7 °C 1016.1 hPa SE 31.5 km/h 31.5 km/h 53 % 0.0 mm 79.0 W/m2 FEW
17:23 24.8 °C 14.6 °C 1015.8 hPa ESE 24.1 km/h 24.1 km/h 53 % 0.0 mm 109.0 W/m2 FEW
17:28 24.8 °C 14.6 °C 1015.8 hPa East 31.5 km/h 31.5 km/h 53 % 0.0 mm 105.0 W/m2 CLR
17:33 25.1 °C 14.6 °C 1015.8 hPa East 46.3 km/h 46.3 km/h 52 % 0.0 mm 90.0 W/m2 CLR
17:43 25.3 °C 14.2 °C 1015.5 hPa SE 27.8 km/h 27.8 km/h 50 % 0.0 mm 74.0 W/m2 FEW
17:48 25.3 °C 14.4 °C 1015.5 hPa ESE 16.7 km/h 16.7 km/h 51 % 0.0 mm 67.0 W/m2 FEW
17:53 25.3 °C 13.8 °C 1015.5 hPa East 22.2 km/h 22.2 km/h 49 % 0.0 mm 42.0 W/m2 SCT
17:58 25.2 °C 13.7 °C 1015.1 hPa East 37.0 km/h 37.0 km/h 49 % 0.0 mm 53.0 W/m2 SCT
18:03 24.9 °C 13.8 °C 1015.1 hPa ESE 40.7 km/h 40.7 km/h 50 % 0.0 mm 90.0 W/m2 SCT
18:08 24.7 °C 13.6 °C 1015.1 hPa ESE 37.0 km/h 37.0 km/h 50 % 0.0 mm 65.0 W/m2 FEW
18:13 24.8 °C 13.0 °C 1015.1 hPa ESE 40.7 km/h 40.7 km/h 48 % 0.0 mm 40.0 W/m2 FEW
18:18 24.9 °C 12.1 °C 1015.1 hPa ESE 46.3 km/h 46.3 km/h 45 % 0.0 mm 44.0 W/m2 SCT
18:57 23.9 °C 12.3 °C 1015.8 hPa SSE 51.8 km/h 51.8 km/h 48 % 0.0 mm 30.0 W/m2 OVC
19:02 23.3 °C 11.7 °C 1016.1 hPa SE 22.2 km/h 22.2 km/h 48 % 0.0 mm 16.0 W/m2 BKN
19:07 23.3 °C 12.0 °C 1016.5 hPa SE 20.4 km/h 20.4 km/h 49 % 0.0 mm 14.0 W/m2 BKN
19:08 23.3 °C 12.0 °C 1016.5 hPa SE 24.1 km/h 24.1 km/h 49 % 0.0 mm 14.0 W/m2 BKN
19:13 23.3 °C 12.3 °C 1016.8 hPa ESE 27.8 km/h 27.8 km/h 50 % 0.0 mm 7.0 W/m2 BKN
19:14 23.3 °C 12.3 °C 1016.8 hPa SE 27.8 km/h 27.8 km/h 50 % 0.0 mm 7.0 W/m2 BKN
19:26 21.1 °C 13.1 °C 1017.5 hPa SE 32.2 km/h 32.2 km/h 60 % 0.0 mm 33.0 W/m2 BKN
19:27 21.1 °C 13.1 °C 1017.5 hPa SE 29.6 km/h 29.6 km/h 60 % 0.0 mm 30.0 W/m2 BKN
19:32 20.0 °C 13.2 °C 1017.5 hPa SE 22.2 km/h 22.2 km/h 65 % 0.3 mm 11.0 W/m2 RA
19:37 19.4 °C 13.2 °C 1017.5 hPa SE 14.8 km/h 14.8 km/h 67 % 0.3 mm 14.0 W/m2 BKN
20:23 18.3 °C 14.0 °C 1017.5 hPa Calm     76 % 0.3 mm 0.0 W/m2 OVC
20:28 18.3 °C 13.2 °C 1017.8 hPa SE 13.0 km/h 13.0 km/h 72 % 0.3 mm 0.0 W/m2 OVC
20:33 18.3 °C 12.8 °C 1017.5 hPa SSE 1.6 km/h   70 % 0.3 mm 0.0 W/m2 OVC
20:38 18.3 °C 12.3 °C 1017.5 hPa Calm     68 % 0.3 mm 0.0 W/m2 OVC
20:43 18.3 °C 12.8 °C 1017.5 hPa Calm     70 % 0.3 mm 0.0 W/m2 OVC
20:48 18.3 °C 12.3 °C 1017.8 hPa Calm     68 % 0.3 mm 0.0 W/m2 CLR
20:53 18.3 °C 11.9 °C 1017.5 hPa East 14.8 km/h 14.8 km/h 66 % 0.3 mm 0.0 W/m2 CLR
20:58 19.4 °C 11.9 °C 1017.5 hPa ESE 18.5 km/h 18.5 km/h 62 % 0.3 mm 0.0 W/m2 CLR
21:04 20.0 °C 12.5 °C 1017.5 hPa East 18.5 km/h 18.5 km/h 62 % 0.5 mm 0.0 W/m2 RA
21:09 19.4 °C 11.5 °C 1017.5 hPa East 29.0 km/h 29.0 km/h 60 % 0.5 mm 0.0 W/m2
21:14 19.4 °C 11.7 °C 1017.5 hPa East 33.3 km/h 33.3 km/h 61 % 0.3 mm 0.0 W/m2 CLR
21:19 19.4 °C 12.4 °C 1017.5 hPa East 31.5 km/h 31.5 km/h 64 % 0.3 mm 0.0 W/m2 CLR
21:24 20.0 °C 12.7 °C 1017.5 hPa SE 37.0 km/h 37.0 km/h 63 % 0.3 mm 0.0 W/m2 CLR
21:29 20.6 °C 13.3 °C 1017.5 hPa ESE 31.5 km/h 31.5 km/h 63 % 0.3 mm 0.0 W/m2 CLR
21:34 20.6 °C 13.0 °C 1017.5 hPa ESE 16.7 km/h 16.7 km/h 62 % 0.3 mm 0.0 W/m2 CLR
21:39 20.6 °C 12.5 °C 1017.2 hPa East 38.9 km/h 38.9 km/h 60 % 0.3 mm 0.0 W/m2 CLR
21:44 20.6 °C 12.5 °C 1016.8 hPa ESE 35.2 km/h 35.2 km/h 60 % 0.3 mm 0.0 W/m2 CLR
21:49 20.6 °C 12.5 °C 1016.8 hPa ESE 29.6 km/h 29.6 km/h 60 % 0.3 mm 0.0 W/m2 CLR
21:54 20.6 °C 12.8 °C 1016.8 hPa ESE 18.5 km/h 18.5 km/h 61 % 0.3 mm 0.0 W/m2 CLR
21:59 20.6 °C 12.3 °C 1016.5 hPa ENE 27.8 km/h 27.8 km/h 59 % 0.3 mm 0.0 W/m2 CLR
22:04 20.6 °C 12.5 °C 1016.5 hPa ESE 29.6 km/h 29.6 km/h 60 % 0.0 mm 0.0 W/m2 CLR
22:09 20.6 °C 12.5 °C 1016.5 hPa ESE 37.0 km/h 37.0 km/h 60 % 0.0 mm 0.0 W/m2 CLR
22:14 20.6 °C 12.3 °C 1016.5 hPa ESE 35.2 km/h 35.2 km/h 59 % 0.0 mm 0.0 W/m2 CLR
22:19 21.1 °C 12.8 °C 1016.5 hPa ESE 44.4 km/h 44.4 km/h 59 % 0.0 mm 0.0 W/m2 CLR
22:24 20.6 °C 12.5 °C 1016.1 hPa ESE 37.0 km/h 37.0 km/h 60 % 0.0 mm 0.0 W/m2 CLR
22:29 20.0 °C 12.5 °C 1016.1 hPa ESE 31.5 km/h 31.5 km/h 62 % 0.0 mm 0.0 W/m2 CLR
22:34 20.0 °C 12.7 °C 1016.1 hPa East 31.5 km/h 31.5 km/h 63 % 0.0 mm 0.0 W/m2 CLR
22:39 20.0 °C 12.5 °C 1016.1 hPa ESE 27.8 km/h 27.8 km/h 62 % 0.0 mm 0.0 W/m2 CLR
22:44 19.4 °C 12.2 °C 1016.1 hPa East 20.4 km/h 20.4 km/h 63 % 0.0 mm 0.0 W/m2 CLR
22:49 19.4 °C 12.4 °C 1015.8 hPa East 24.1 km/h 24.1 km/h 64 % 0.0 mm 0.0 W/m2 CLR
22:54 19.4 °C 12.7 °C 1015.8 hPa SE 11.1 km/h 11.1 km/h 65 % 0.0 mm 0.0 W/m2 CLR
22:59 19.4 °C 12.7 °C 1015.8 hPa ESE 18.5 km/h 18.5 km/h 65 % 0.0 mm 0.0 W/m2 CLR
23:04 20.0 °C 13.4 °C 1015.8 hPa ESE 13.0 km/h 13.0 km/h 66 % 0.0 mm 0.0 W/m2 CLR
23:09 20.6 °C 14.0 °C 1015.8 hPa ESE 18.5 km/h 18.5 km/h 66 % 0.0 mm 0.0 W/m2 CLR
23:10 20.6 °C 14.0 °C 1015.8 hPa ESE 16.7 km/h 16.7 km/h 66 % 0.0 mm 0.0 W/m2 CLR
23:15 20.6 °C 14.0 °C 1015.8 hPa East 14.8 km/h 14.8 km/h 66 % 0.0 mm 0.0 W/m2 CLR
23:20 20.6 °C 13.7 °C 1016.1 hPa ESE 5.6 km/h 5.6 km/h 65 % 0.0 mm 0.0 W/m2 CLR
23:25 20.6 °C 13.7 °C 1016.1 hPa Calm     65 % 0.0 mm 0.0 W/m2 CLR
23:30 20.0 °C 13.9 °C 1016.1 hPa Calm     68 % 0.0 mm 0.0 W/m2 CLR
23:35 20.0 °C 13.9 °C 1016.1 hPa Calm     68 % 0.0 mm 0.0 W/m2 CLR
23:40 19.4 °C 13.2 °C 1016.1 hPa Calm     67 % 0.0 mm 0.0 W/m2 CLR
23:45 18.9 °C 12.4 °C 1016.5 hPa Calm     66 % 0.0 mm 0.0 W/m2 CLR
23:50 18.9 °C 12.2 °C 1016.1 hPa SE 14.8 km/h 14.8 km/h 65 % 0.0 mm 0.0 W/m2 CLR
23:55 18.9 °C 11.9 °C 1016.5 hPa Calm     64 % 0.0 mm 0.0 W/m2 CLR
23:56 18.9 °C 12.2 °C 1016.5 hPa Calm     65 % 0.0 mm 0.0 W/m2 CLR
Lo Temps de Massalio
Compliments of Weather Underground - 1.25 mb